Flowella, Texas
Current Conditions -  °F | °C
As of 1:15 PM on Thursday 30 Oct 2014 (Local Time) from KBKS Reporting Station
Scattered Clouds Scattered Clouds  
Wind Chill: 82°   Ceiling: Unl
Heat Index: 84°   Visibility: 10mi
Dew Point: 67°   Wind: 0mph
Humidity: 60%   Direction: NA
Pressure: 30.07"   Gusts: NA
Location:  27.2181°N, 98.2459°W
Report Text: KBKS 301815Z AUTO 00000KT 10SM SCT038 SCT047 28/19 A3007 RMK AO1 T02770192
Loading
Personal Weather Stations






























Interactive Weather Map
Tropical Storm Tracking
New forecast layout! Learn more

10-Day Weather Forecast

Advertisements
Track Severe Weather on mobile